createdAt,value
2018-03-17T00:00:59.959Z,6.40
2018-03-17T00:01:59.945Z,6.80
2018-03-17T00:02:59.935Z,5.50
2018-03-17T00:03:59.920Z,5.50
2018-03-17T00:04:59.907Z,7.70
2018-03-17T00:05:59.886Z,4.70
2018-03-17T00:06:59.871Z,8.10
2018-03-17T00:07:59.860Z,4.60
2018-03-17T00:08:59.848Z,6.20
2018-03-17T00:09:59.827Z,3.90
2018-03-17T00:10:59.810Z,5.50
2018-03-17T00:11:59.796Z,4.60
2018-03-17T00:12:59.787Z,4.70
2018-03-17T00:13:59.773Z,4.30
2018-03-17T00:14:59.759Z,5.10
2018-03-17T00:15:59.743Z,4.50
2018-03-17T00:16:59.725Z,5.80
2018-03-17T00:17:59.716Z,9.00
2018-03-17T00:18:59.694Z,7.40
2018-03-17T00:19:59.678Z,7.40
2018-03-17T00:20:59.663Z,5.90
2018-03-17T00:21:59.652Z,5.00
2018-03-17T00:22:59.636Z,5.70
2018-03-17T00:23:59.618Z,6.00
2018-03-17T00:24:59.610Z,5.10
2018-03-17T00:25:59.598Z,6.60
2018-03-17T00:26:59.583Z,4.90
2018-03-17T00:27:59.568Z,5.60
2018-03-17T00:28:59.545Z,5.80
2018-03-17T00:29:59.532Z,9.00
2018-03-17T00:30:59.523Z,5.00
2018-03-17T00:31:59.501Z,5.40
2018-03-17T00:32:59.486Z,4.80
2018-03-17T00:33:59.478Z,7.20
2018-03-17T00:34:59.458Z,5.00
2018-03-17T00:35:59.446Z,6.60
2018-03-17T00:36:59.427Z,5.60
2018-03-17T00:37:59.412Z,7.00
2018-03-17T00:38:59.397Z,4.30
2018-03-17T00:39:59.381Z,5.80
2018-03-17T00:40:59.372Z,8.00
2018-03-17T00:41:59.352Z,5.80
2018-03-17T00:42:59.336Z,6.00
2018-03-17T00:43:59.321Z,5.30
2018-03-17T00:44:59.310Z,7.40
2018-03-17T00:45:59.293Z,6.50
2018-03-17T00:46:59.281Z,3.70
2018-03-17T00:47:59.261Z,5.70
2018-03-17T00:48:59.252Z,4.70
2018-03-17T00:49:59.232Z,5.60
2018-03-17T00:50:59.221Z,7.40
2018-03-17T00:51:59.204Z,6.70
2018-03-17T00:52:59.186Z,6.60
2018-03-17T00:53:59.174Z,5.70
2018-03-17T00:54:59.157Z,7.00
2018-03-17T00:55:59.140Z,7.40
2018-03-17T00:56:59.127Z,7.40
2018-03-17T00:57:59.118Z,6.50
2018-03-17T00:58:59.099Z,7.10
2018-03-17T00:59:59.082Z,6.20
2018-03-17T01:00:59.072Z,7.80
2018-03-17T01:01:59.059Z,6.20
2018-03-17T01:02:59.037Z,4.70
2018-03-17T01:03:59.022Z,6.80
2018-03-17T01:04:59.006Z,6.10
2018-03-17T01:05:59.000Z,4.40
2018-03-17T01:06:58.983Z,7.10
2018-03-17T01:07:58.959Z,7.50
2018-03-17T01:08:58.949Z,5.30
2018-03-17T01:09:58.934Z,7.90
2018-03-17T01:10:58.916Z,6.40
2018-03-17T01:11:58.901Z,7.50
2018-03-17T01:12:58.895Z,6.80
2018-03-17T01:13:58.869Z,8.00
2018-03-17T01:14:58.854Z,5.80
2018-03-17T01:15:58.839Z,7.90
2018-03-17T01:16:58.823Z,6.00
2018-03-17T01:17:58.809Z,5.50
2018-03-17T01:18:58.797Z,5.00
2018-03-17T01:19:58.784Z,7.00
2018-03-17T01:20:58.764Z,7.00
2018-03-17T01:21:58.748Z,6.10
2018-03-17T01:22:58.733Z,5.00
2018-03-17T01:23:58.718Z,8.30
2018-03-17T01:24:58.702Z,6.20
2018-03-17T01:25:58.686Z,7.40
2018-03-17T01:26:58.671Z,7.10
2018-03-17T01:27:58.655Z,5.60
2018-03-17T01:28:58.649Z,6.60
2018-03-17T01:29:58.634Z,5.60
2018-03-17T01:30:58.612Z,5.80
2018-03-17T01:31:58.600Z,7.40
2018-03-17T01:32:58.578Z,7.90
2018-03-17T01:33:58.564Z,4.20
2018-03-17T01:34:58.556Z,6.50
2018-03-17T01:35:58.536Z,5.00
2018-03-17T01:36:58.520Z,5.80
2018-03-17T01:37:58.506Z,5.30
2018-03-17T01:38:58.490Z,6.50
2018-03-17T01:39:58.479Z,6.10
2018-03-17T01:40:58.463Z,5.70
2018-03-17T01:41:58.450Z,4.60
2018-03-17T01:42:58.425Z,5.50
2018-03-17T01:43:58.424Z,4.60
2018-03-17T01:44:58.396Z,5.80
2018-03-17T01:45:58.381Z,5.00
2018-03-17T01:46:58.368Z,5.30
2018-03-17T01:47:58.349Z,6.20
2018-03-17T01:48:58.335Z,7.80
2018-03-17T01:49:58.327Z,6.40
2018-03-17T01:50:58.304Z,6.40
2018-03-17T01:51:58.288Z,6.60
2018-03-17T01:52:58.273Z,4.00
2018-03-17T01:53:58.257Z,5.80
2018-03-17T01:54:58.241Z,6.30
2018-03-17T01:55:58.228Z,4.50
2018-03-17T01:56:58.212Z,5.70
2018-03-17T01:57:58.206Z,3.40
2018-03-17T01:58:58.181Z,5.60
2018-03-17T01:59:58.165Z,5.40
2018-03-17T02:00:58.160Z,6.00
2018-03-17T02:01:58.134Z,4.30
2018-03-17T02:02:58.125Z,6.50
2018-03-17T02:03:58.109Z,5.00
2018-03-17T02:04:58.095Z,4.20
2018-03-17T02:05:58.076Z,8.70
2018-03-17T02:06:58.075Z,4.50
2018-03-17T02:07:58.043Z,9.00
2018-03-17T02:08:58.028Z,7.00
2018-03-17T02:09:58.012Z,6.10
2018-03-17T02:10:57.999Z,5.70
2018-03-17T02:11:57.984Z,6.50
2018-03-17T02:12:57.965Z,5.20
2018-03-17T02:13:57.957Z,4.50
2018-03-17T02:14:57.942Z,10.00
2018-03-17T02:15:57.920Z,5.00
2018-03-17T02:16:57.911Z,4.70
2018-03-17T02:17:57.890Z,5.90
2018-03-17T02:18:57.880Z,7.30
2018-03-17T02:19:57.860Z,5.00
2018-03-17T02:20:57.847Z,6.70
2018-03-17T02:21:57.833Z,5.30
2018-03-17T02:22:57.812Z,5.60
2018-03-17T02:23:57.796Z,6.10
2018-03-17T02:24:57.787Z,5.50
2018-03-17T02:25:57.772Z,5.90
2018-03-17T02:26:57.750Z,6.00
2018-03-17T02:27:57.750Z,6.50
2018-03-17T02:28:57.718Z,8.20
2018-03-17T02:29:57.709Z,7.70
2018-03-17T02:30:57.689Z,7.30
2018-03-17T02:31:57.679Z,6.60
2018-03-17T02:32:57.665Z,6.40
2018-03-17T02:33:57.648Z,5.60
2018-03-17T02:34:57.629Z,6.90
2018-03-17T02:35:57.619Z,7.80
2018-03-17T02:36:57.596Z,5.30
2018-03-17T02:37:57.587Z,6.20
2018-03-17T02:38:57.565Z,5.90
2018-03-17T02:39:57.549Z,5.50
2018-03-17T02:40:57.536Z,8.10
2018-03-17T02:41:57.522Z,7.70
2018-03-17T02:42:57.503Z,7.40
2018-03-17T02:43:57.489Z,6.10
2018-03-17T02:44:57.473Z,7.20
2018-03-17T02:45:57.466Z,6.70
2018-03-17T02:46:57.441Z,5.40
2018-03-17T02:47:57.440Z,7.00
2018-03-17T02:48:57.416Z,8.00
2018-03-17T02:49:57.395Z,7.20
2018-03-17T02:50:57.380Z,5.80
2018-03-17T02:51:57.372Z,7.90
2018-03-17T02:52:57.357Z,8.40
2018-03-17T02:53:57.339Z,4.50
2018-03-17T02:54:57.327Z,7.20
2018-03-17T02:55:57.306Z,7.40
2018-03-17T02:56:57.291Z,7.40
2018-03-17T02:57:57.274Z,5.60
2018-03-17T02:58:57.257Z,8.70
2018-03-17T02:59:57.243Z,7.40
2018-03-17T03:00:57.225Z,9.00
2018-03-17T03:01:57.210Z,9.40
2018-03-17T03:02:57.195Z,6.50
2018-03-17T03:03:57.184Z,6.00
2018-03-17T03:04:57.165Z,5.30
2018-03-17T03:05:57.156Z,6.70
2018-03-17T03:06:57.133Z,6.50
2018-03-17T03:07:57.124Z,7.70
2018-03-17T03:08:57.113Z,8.50
2018-03-17T03:09:57.093Z,7.80
2018-03-17T03:10:57.070Z,7.90
2018-03-17T03:11:57.058Z,6.60
2018-03-17T03:12:57.041Z,7.90
2018-03-17T03:13:57.024Z,5.70
2018-03-17T03:14:57.013Z,7.10
2018-03-17T03:15:56.993Z,6.70
2018-03-17T03:16:56.979Z,6.20
2018-03-17T03:17:56.969Z,6.20
2018-03-17T03:18:56.950Z,8.80
2018-03-17T03:19:56.933Z,6.40
2018-03-17T03:20:56.917Z,5.00
2018-03-17T03:21:56.902Z,6.50
2018-03-17T03:22:56.894Z,5.70
2018-03-17T03:23:56.878Z,6.60
2018-03-17T03:24:56.858Z,7.60
2018-03-17T03:25:56.841Z,9.10
2018-03-17T03:26:56.823Z,6.30
2018-03-17T03:27:56.810Z,7.70
2018-03-17T03:28:56.800Z,6.40
2018-03-17T03:29:56.778Z,5.60
2018-03-17T03:30:56.764Z,4.30
2018-03-17T03:31:56.748Z,6.60
2018-03-17T03:32:56.733Z,6.70
2018-03-17T03:33:56.720Z,10.70
2018-03-17T03:34:56.702Z,6.20
2018-03-17T03:35:56.685Z,6.30
2018-03-17T03:36:56.671Z,7.10
2018-03-17T03:37:56.654Z,5.50
2018-03-17T03:38:56.644Z,7.20
2018-03-17T03:39:56.622Z,6.20
2018-03-17T03:40:56.608Z,6.20
2018-03-17T03:41:56.599Z,11.70
2018-03-17T03:42:56.582Z,5.60
2018-03-17T03:43:56.562Z,6.40
2018-03-17T03:44:56.544Z,8.00
2018-03-17T03:45:56.528Z,6.50
2018-03-17T03:46:56.520Z,7.10
2018-03-17T03:47:56.504Z,7.30
2018-03-17T03:48:56.484Z,5.20
2018-03-17T03:49:56.469Z,6.90
2018-03-17T03:50:56.449Z,5.20
2018-03-17T03:51:56.436Z,7.50
2018-03-17T03:52:56.421Z,7.30
2018-03-17T03:53:56.405Z,6.30
2018-03-17T03:54:56.386Z,8.70
2018-03-17T03:55:56.376Z,7.40
2018-03-17T03:56:56.356Z,7.00
2018-03-17T03:57:56.341Z,6.40
2018-03-17T03:58:56.322Z,5.90
2018-03-17T03:59:56.309Z,7.00
2018-03-17T04:00:56.294Z,6.10
2018-03-17T04:01:56.278Z,5.90
2018-03-17T04:02:56.271Z,7.60
2018-03-17T04:03:56.247Z,7.10
2018-03-17T04:04:56.235Z,6.20
2018-03-17T04:05:56.214Z,8.40
2018-03-17T04:06:56.202Z,6.20
2018-03-17T04:07:56.185Z,9.90
2018-03-17T04:08:56.166Z,6.70
2018-03-17T04:09:56.156Z,7.10
2018-03-17T04:10:56.134Z,5.70
2018-03-17T04:11:56.125Z,6.00
2018-03-17T04:12:56.110Z,7.50
2018-03-17T04:13:56.086Z,8.10
2018-03-17T04:14:56.071Z,7.50
2018-03-17T04:15:56.058Z,7.00
2018-03-17T04:16:56.040Z,6.10
2018-03-17T04:17:56.024Z,7.10
2018-03-17T04:18:56.014Z,9.20
2018-03-17T04:19:55.992Z,6.50
2018-03-17T04:20:55.981Z,5.90
2018-03-17T04:21:55.961Z,7.30
2018-03-17T04:22:55.956Z,5.90
2018-03-17T04:23:55.927Z,8.50
2018-03-17T04:24:55.912Z,6.60
2018-03-17T04:25:55.902Z,6.00
2018-03-17T04:26:55.882Z,7.40
2018-03-17T04:27:55.863Z,6.50
2018-03-17T04:28:55.848Z,7.70
2018-03-17T04:29:55.839Z,7.30
2018-03-17T04:30:55.816Z,5.00
2018-03-17T04:31:55.805Z,6.40
2018-03-17T04:32:55.790Z,6.20
2018-03-17T04:33:55.769Z,5.50
2018-03-17T04:34:55.751Z,6.70
2018-03-17T04:35:55.738Z,5.90
2018-03-17T04:36:55.749Z,5.90
2018-03-17T04:37:55.703Z,6.60
2018-03-17T04:38:55.687Z,5.90
2018-03-17T04:39:55.673Z,5.60
2018-03-17T04:40:55.656Z,5.40
2018-03-17T04:41:55.644Z,5.80
2018-03-17T04:42:55.635Z,6.20
2018-03-17T04:43:55.609Z,4.90
2018-03-17T04:44:55.600Z,4.60
2018-03-17T04:45:55.577Z,7.60
2018-03-17T04:46:55.563Z,6.00
2018-03-17T04:47:55.545Z,6.60
2018-03-17T04:48:55.529Z,6.90
2018-03-17T04:49:55.514Z,6.80
2018-03-17T04:50:55.498Z,5.50
2018-03-17T04:51:55.482Z,6.10
2018-03-17T04:52:55.472Z,6.80
2018-03-17T04:53:55.461Z,7.10
2018-03-17T04:54:55.438Z,6.80
2018-03-17T04:55:55.420Z,7.80
2018-03-17T04:56:55.408Z,5.40
2018-03-17T04:57:55.387Z,6.80
2018-03-17T04:58:55.378Z,6.10
2018-03-17T04:59:55.361Z,6.30
2018-03-17T05:00:55.345Z,5.70
2018-03-17T05:01:55.329Z,5.30
2018-03-17T05:02:55.313Z,5.90
2018-03-17T05:03:55.292Z,6.60
2018-03-17T05:04:55.283Z,7.70
2018-03-17T05:05:55.260Z,5.50
2018-03-17T05:06:55.243Z,6.70
2018-03-17T05:07:55.234Z,5.10
2018-03-17T05:08:55.215Z,4.90
2018-03-17T05:09:55.209Z,5.30
2018-03-17T05:10:55.191Z,5.70
2018-03-17T05:11:55.166Z,5.90
2018-03-17T05:12:55.179Z,6.70
2018-03-17T05:13:55.135Z,5.00
2018-03-17T05:14:55.124Z,6.50
2018-03-17T05:15:55.102Z,6.00
2018-03-17T05:16:55.086Z,8.50
2018-03-17T05:17:55.070Z,4.90
2018-03-17T05:18:55.055Z,9.00
2018-03-17T05:19:55.039Z,7.90
2018-03-17T05:20:55.029Z,7.50
2018-03-17T05:21:55.007Z,8.50
2018-03-17T05:22:54.992Z,6.10
2018-03-17T05:23:54.979Z,6.20
2018-03-17T05:24:54.960Z,6.70
2018-03-17T05:25:54.952Z,5.40
2018-03-17T05:26:54.947Z,7.20
2018-03-17T05:27:54.928Z,6.40
2018-03-17T05:28:54.897Z,5.60
2018-03-17T05:29:54.880Z,6.60
2018-03-17T05:30:54.867Z,6.20
2018-03-17T05:31:54.852Z,6.60
2018-03-17T05:32:54.842Z,5.00
2018-03-17T05:33:54.825Z,6.10
2018-03-17T05:34:54.807Z,8.60
2018-03-17T05:35:54.786Z,6.40
2018-03-17T05:36:54.768Z,5.70
2018-03-17T05:37:54.754Z,6.60
2018-03-17T05:38:54.739Z,6.80
2018-03-17T05:39:54.727Z,7.40
2018-03-17T05:40:54.704Z,7.30
2018-03-17T05:41:54.691Z,4.90
2018-03-17T05:42:54.673Z,6.70
2018-03-17T05:43:54.664Z,7.30
2018-03-17T05:44:54.643Z,8.50
2018-03-17T05:45:54.634Z,5.70
2018-03-17T05:46:54.615Z,5.40
2018-03-17T05:47:54.604Z,7.70
2018-03-17T05:48:54.577Z,6.30
2018-03-17T05:49:54.569Z,6.90
2018-03-17T05:50:54.548Z,5.90
2018-03-17T05:51:54.530Z,5.20
2018-03-17T05:52:54.526Z,5.90
2018-03-17T05:53:54.548Z,5.50
2018-03-17T05:54:54.504Z,5.90
2018-03-17T05:55:54.488Z,5.30
2018-03-17T05:56:54.456Z,7.00
2018-03-17T05:57:54.439Z,7.50
2018-03-17T05:58:54.420Z,7.50
2018-03-17T05:59:54.406Z,8.20
2018-03-17T06:00:54.395Z,6.00
2018-03-17T06:01:54.374Z,7.30
2018-03-17T06:02:54.356Z,5.50
2018-03-17T06:03:54.340Z,6.50
2018-03-17T06:04:54.326Z,8.50
2018-03-17T06:05:54.310Z,6.90
2018-03-17T06:06:54.303Z,6.40
2018-03-17T06:07:54.282Z,5.80
2018-03-17T06:08:54.269Z,8.20
2018-03-17T06:09:54.254Z,8.10
2018-03-17T06:10:54.239Z,10.40
2018-03-17T06:11:54.216Z,5.60
2018-03-17T06:12:54.195Z,6.20
2018-03-17T06:13:54.178Z,8.70
2018-03-17T06:14:54.161Z,9.80
2018-03-17T06:15:54.147Z,6.80
2018-03-17T06:16:54.136Z,7.70
2018-03-17T06:17:54.116Z,5.90
2018-03-17T06:18:54.098Z,6.00
2018-03-17T06:19:54.084Z,6.80
2018-03-17T06:20:54.071Z,4.50
2018-03-17T06:21:54.050Z,5.10
2018-03-17T06:22:54.041Z,5.00
2018-03-17T06:23:54.020Z,7.00
2018-03-17T06:24:54.009Z,5.50
2018-03-17T06:25:53.992Z,7.50
2018-03-17T06:26:53.971Z,6.40
2018-03-17T06:27:53.955Z,5.60
2018-03-17T06:28:53.938Z,6.40
2018-03-17T06:29:53.931Z,4.90
2018-03-17T06:30:53.909Z,6.30
2018-03-17T06:31:53.892Z,5.40
2018-03-17T06:32:53.886Z,8.30
2018-03-17T06:33:54.152Z,5.30
2018-03-17T06:34:53.852Z,6.40
2018-03-17T06:35:53.835Z,6.00
2018-03-17T06:36:53.813Z,7.50
2018-03-17T06:37:53.805Z,5.20
2018-03-17T06:38:53.781Z,5.10
2018-03-17T06:39:53.767Z,7.90
2018-03-17T06:40:53.763Z,6.00
2018-03-17T06:41:53.745Z,8.10
2018-03-17T06:42:53.719Z,5.20
2018-03-17T06:43:53.707Z,8.20
2018-03-17T06:44:53.696Z,7.60
2018-03-17T06:45:53.675Z,5.80
2018-03-17T06:46:53.659Z,5.60
2018-03-17T06:47:53.643Z,6.30
2018-03-17T06:48:53.634Z,6.80
2018-03-17T06:49:53.648Z,7.70
2018-03-17T06:50:53.598Z,6.90
2018-03-17T06:51:53.586Z,4.90
2018-03-17T06:52:53.567Z,6.60
2018-03-17T06:53:53.557Z,6.80
2018-03-17T06:54:53.541Z,7.50
2018-03-17T06:55:53.526Z,5.60
2018-03-17T06:56:53.509Z,8.20
2018-03-17T06:57:53.495Z,6.00
2018-03-17T06:58:53.473Z,7.50
2018-03-17T06:59:53.458Z,5.70
2018-03-17T07:00:53.445Z,6.90
2018-03-17T07:01:53.430Z,6.30
2018-03-17T07:02:53.414Z,6.70
2018-03-17T07:03:53.400Z,4.90
2018-03-17T07:04:53.392Z,6.30
2018-03-17T07:05:53.371Z,4.90
2018-03-17T07:06:53.410Z,6.20
2018-03-17T07:07:53.344Z,5.60
2018-03-17T07:08:53.333Z,6.40
2018-03-17T07:09:53.310Z,7.80
2018-03-17T07:10:53.295Z,5.70
2018-03-17T07:11:53.288Z,6.50
2018-03-17T07:12:53.274Z,6.50
2018-03-17T07:13:53.257Z,8.30
2018-03-17T07:14:53.236Z,6.70
2018-03-17T07:15:53.221Z,6.00
2018-03-17T07:16:53.211Z,7.90
2018-03-17T07:17:53.192Z,7.20
2018-03-17T07:18:53.176Z,7.20
2018-03-17T07:19:53.161Z,6.40
2018-03-17T07:20:53.147Z,6.10
2018-03-17T07:21:53.138Z,7.60
2018-03-17T07:22:53.119Z,6.50
2018-03-17T07:23:53.111Z,4.20
2018-03-17T07:24:53.089Z,6.00
2018-03-17T07:25:53.084Z,7.70
2018-03-17T07:26:53.059Z,6.20
2018-03-17T07:27:53.045Z,8.50
2018-03-17T07:28:53.031Z,6.70
2018-03-17T07:29:53.026Z,5.60
2018-03-17T07:30:53.003Z,5.20
2018-03-17T07:31:52.987Z,5.90
2018-03-17T07:32:52.978Z,6.20
2018-03-17T07:33:52.959Z,8.20
2018-03-17T07:34:52.949Z,6.50
2018-03-17T07:35:52.931Z,6.30
2018-03-17T07:36:52.921Z,8.20
2018-03-17T07:37:52.928Z,4.80
2018-03-17T07:38:52.891Z,8.00
2018-03-17T07:39:52.875Z,5.90
2018-03-17T07:40:52.857Z,6.90
2018-03-17T07:41:52.843Z,4.80
2018-03-17T07:42:52.826Z,6.60
2018-03-17T07:43:52.813Z,8.10
2018-03-17T07:44:52.797Z,6.30
2018-03-17T07:45:52.785Z,6.00
2018-03-17T07:46:52.768Z,6.80
2018-03-17T07:47:52.756Z,9.80
2018-03-17T07:48:52.740Z,7.70
2018-03-17T07:49:52.726Z,8.10
2018-03-17T07:50:52.716Z,5.80
2018-03-17T07:51:52.696Z,7.80
2018-03-17T07:52:52.686Z,9.00
2018-03-17T07:53:52.670Z,9.00
2018-03-17T07:54:52.659Z,6.90
2018-03-17T07:55:52.637Z,6.70
2018-03-17T07:56:52.630Z,8.40
2018-03-17T07:57:52.614Z,9.90
2018-03-17T07:58:52.596Z,6.90
2018-03-17T07:59:52.579Z,9.20
2018-03-17T08:00:52.568Z,8.60
2018-03-17T08:01:52.553Z,8.10
2018-03-17T08:02:52.544Z,7.00
2018-03-17T08:03:52.531Z,8.40
2018-03-17T08:04:52.508Z,7.80
2018-03-17T08:05:52.494Z,7.50
2018-03-17T08:06:52.477Z,6.50
2018-03-17T08:07:52.470Z,8.60
2018-03-17T08:08:52.491Z,7.80
2018-03-17T08:09:52.437Z,6.30
2018-03-17T08:10:52.422Z,6.60
2018-03-17T08:11:52.407Z,4.90
2018-03-17T08:12:52.393Z,6.40
2018-03-17T08:13:52.385Z,8.20
2018-03-17T08:14:52.368Z,7.50
2018-03-17T08:15:52.350Z,9.30
2018-03-17T08:16:52.336Z,6.10
2018-03-17T08:17:52.328Z,9.60
2018-03-17T08:18:52.314Z,4.90
2018-03-17T08:19:52.301Z,6.40
2018-03-17T08:20:52.281Z,8.00
2018-03-17T08:21:52.267Z,8.20
2018-03-17T08:22:52.257Z,7.50
2018-03-17T08:23:52.240Z,8.80
2018-03-17T08:24:52.235Z,6.40
2018-03-17T08:25:52.213Z,9.30
2018-03-17T08:26:52.204Z,7.00
2018-03-17T08:27:52.192Z,6.40
2018-03-17T08:28:52.174Z,9.00
2018-03-17T08:29:52.166Z,6.60
2018-03-17T08:30:52.155Z,7.20
2018-03-17T08:31:52.132Z,8.00
2018-03-17T08:32:52.123Z,16.20
2018-03-17T08:33:52.106Z,8.60
2018-03-17T08:34:52.099Z,6.90
2018-03-17T08:35:52.085Z,8.80
2018-03-17T08:36:52.068Z,7.30
2018-03-17T08:37:52.065Z,9.30
2018-03-17T08:38:52.048Z,7.20
2018-03-17T08:39:52.028Z,7.10
2018-03-17T08:40:52.012Z,5.30
2018-03-17T08:41:52.005Z,10.50
2018-03-17T08:42:51.987Z,9.10
2018-03-17T08:43:51.978Z,6.90
2018-03-17T08:44:51.965Z,6.80
2018-03-17T08:45:51.964Z,10.20
2018-03-17T08:46:51.936Z,9.40
2018-03-17T08:47:51.923Z,6.80
2018-03-17T08:48:51.910Z,8.90
2018-03-17T08:49:51.898Z,6.00
2018-03-17T08:50:51.890Z,9.00
2018-03-17T08:51:51.874Z,6.80
2018-03-17T08:52:51.862Z,8.90
2018-03-17T08:53:51.851Z,10.70
2018-03-17T08:54:51.836Z,6.30
2018-03-17T08:55:51.822Z,10.30
2018-03-17T08:56:51.810Z,7.50
2018-03-17T08:57:51.803Z,6.80
2018-03-17T08:58:51.807Z,9.50
2018-03-17T08:59:51.773Z,7.30
2018-03-17T09:00:51.761Z,9.20
2018-03-17T09:01:51.752Z,7.90
2018-03-17T09:02:51.736Z,9.40
2018-03-17T09:03:51.730Z,7.50
2018-03-17T09:04:51.720Z,12.00
2018-03-17T09:05:51.705Z,12.30
2018-03-17T09:06:51.694Z,12.70
2018-03-17T09:07:51.681Z,13.30
2018-03-17T09:08:51.668Z,12.30
2018-03-17T09:09:51.654Z,14.50
2018-03-17T09:10:51.638Z,11.40
2018-03-17T09:11:51.632Z,11.60
2018-03-17T09:12:51.617Z,12.60
2018-03-17T09:13:51.609Z,15.20
2018-03-17T09:14:51.591Z,17.50
2018-03-17T09:15:51.578Z,17.10
2018-03-17T09:16:51.572Z,18.20
2018-03-17T09:17:51.552Z,14.40
2018-03-17T09:18:51.543Z,17.20
2018-03-17T09:19:51.535Z,18.00
2018-03-17T09:20:51.517Z,19.00
2018-03-17T09:21:51.504Z,17.60
2018-03-17T09:22:51.493Z,19.40
2018-03-17T09:23:51.482Z,21.00
2018-03-17T09:24:51.477Z,20.70
2018-03-17T09:25:51.455Z,19.30
2018-03-17T09:26:51.440Z,20.90
2018-03-17T09:27:51.431Z,19.10
2018-03-17T09:28:51.416Z,19.60
2018-03-17T09:29:51.410Z,17.40
2018-03-17T09:30:51.389Z,20.60
2018-03-17T09:31:51.380Z,20.70
2018-03-17T09:32:51.366Z,20.10
2018-03-17T09:33:51.355Z,20.60
2018-03-17T09:34:51.349Z,17.20
2018-03-17T09:35:51.328Z,20.30
2018-03-17T09:36:51.316Z,20.20
2018-03-17T09:37:51.304Z,22.80
2018-03-17T09:38:51.289Z,19.70
2018-03-17T09:39:51.292Z,22.20
2018-03-17T09:40:51.270Z,20.90
2018-03-17T09:41:51.261Z,23.30
2018-03-17T09:42:51.247Z,22.90
2018-03-17T09:43:51.235Z,20.70
2018-03-17T09:44:51.219Z,19.60
2018-03-17T09:45:51.204Z,22.50
2018-03-17T09:46:51.183Z,26.50
2018-03-17T09:47:51.177Z,20.10
2018-03-17T09:48:51.162Z,23.50
2018-03-17T09:49:51.144Z,21.60
2018-03-17T09:50:51.132Z,20.30
2018-03-17T09:51:51.121Z,20.00
2018-03-17T09:52:51.110Z,20.20
2018-03-17T09:53:51.092Z,20.40
2018-03-17T09:54:51.077Z,24.80
2018-03-17T09:55:51.064Z,23.00
2018-03-17T09:56:51.058Z,19.50
2018-03-17T09:57:51.048Z,24.60
2018-03-17T09:58:51.029Z,22.80
2018-03-17T09:59:51.013Z,23.10
2018-03-17T10:00:51.005Z,19.90
2018-03-17T10:01:50.991Z,21.40
2018-03-17T10:02:50.976Z,21.20
2018-03-17T10:03:50.961Z,21.80
2018-03-17T10:04:50.965Z,22.10
2018-03-17T10:05:50.935Z,25.20
2018-03-17T10:06:50.928Z,20.50
2018-03-17T10:07:50.911Z,22.50
2018-03-17T10:08:50.895Z,21.50
2018-03-17T10:09:50.889Z,23.10
2018-03-17T10:10:50.872Z,23.80
2018-03-17T10:11:50.859Z,23.90
2018-03-17T10:12:50.872Z,22.50
2018-03-17T10:13:50.825Z,22.10
2018-03-17T10:14:50.822Z,22.50
2018-03-17T10:15:50.808Z,24.10
2018-03-17T10:16:50.792Z,25.20
2018-03-17T10:17:50.772Z,21.80
2018-03-17T10:18:50.759Z,24.70
2018-03-17T10:19:50.744Z,22.10
2018-03-17T10:20:50.737Z,23.50
2018-03-17T10:21:50.719Z,24.40
2018-03-17T10:22:50.706Z,23.10
2018-03-17T10:23:50.691Z,23.80
2018-03-17T10:24:50.678Z,22.90
2018-03-17T10:25:50.669Z,21.60
2018-03-17T10:26:50.652Z,23.00
2018-03-17T10:27:50.640Z,20.70
2018-03-17T10:28:50.628Z,22.60
2018-03-17T10:29:50.623Z,23.50
2018-03-17T10:30:50.606Z,18.60
2018-03-17T10:31:50.587Z,19.40
2018-03-17T10:32:50.571Z,20.30
2018-03-17T10:33:50.560Z,20.30
2018-03-17T10:34:50.549Z,18.00
2018-03-17T10:35:50.534Z,21.70
2018-03-17T10:36:50.518Z,21.20
2018-03-17T10:37:50.508Z,21.00
2018-03-17T10:38:50.496Z,20.90
2018-03-17T10:39:50.480Z,23.60
2018-03-17T10:40:50.462Z,20.20
2018-03-17T10:41:50.455Z,20.70
2018-03-17T10:42:50.437Z,21.80
2018-03-17T10:43:50.423Z,19.20
2018-03-17T10:44:50.409Z,20.50
2018-03-17T10:45:50.401Z,22.40
2018-03-17T10:46:50.384Z,22.30
2018-03-17T10:47:50.436Z,21.80
2018-03-17T10:48:50.358Z,22.60
2018-03-17T10:49:50.351Z,23.00
2018-03-17T10:50:50.344Z,24.10
2018-03-17T10:51:50.327Z,21.10
2018-03-17T10:52:50.304Z,21.10
2018-03-17T10:53:50.289Z,23.60
2018-03-17T10:54:50.274Z,22.60
2018-03-17T10:55:50.260Z,21.30
2018-03-17T10:56:50.256Z,22.00
2018-03-17T10:57:50.235Z,21.40
2018-03-17T10:58:50.219Z,23.90
2018-03-17T10:59:50.208Z,23.90
2018-03-17T11:00:50.196Z,22.40
2018-03-17T11:01:50.183Z,22.90
2018-03-17T11:02:50.171Z,21.70
2018-03-17T11:03:50.154Z,20.30
2018-03-17T11:04:50.142Z,20.00
2018-03-17T11:05:50.146Z,19.70
2018-03-17T11:06:50.114Z,21.00
2018-03-17T11:07:50.120Z,21.40
2018-03-17T11:08:50.089Z,26.10
2018-03-17T11:09:50.074Z,24.40
2018-03-17T11:10:50.066Z,23.20
2018-03-17T11:11:50.049Z,23.10
2018-03-17T11:12:50.035Z,22.50
2018-03-17T11:13:50.024Z,23.10
2018-03-17T11:14:50.014Z,22.10
2018-03-17T11:15:49.996Z,22.20
2018-03-17T11:16:50.032Z,20.70
2018-03-17T11:17:49.973Z,19.30
2018-03-17T11:18:49.957Z,19.40
2018-03-17T11:19:49.961Z,20.10
2018-03-17T11:20:49.938Z,22.00
2018-03-17T11:21:49.921Z,21.80
2018-03-17T11:22:49.908Z,22.10
2018-03-17T11:23:49.890Z,20.00
2018-03-17T11:24:49.875Z,21.50
2018-03-17T11:25:49.861Z,20.40
2018-03-17T11:26:49.849Z,23.20
2018-03-17T11:27:49.836Z,21.60
2018-03-17T11:28:49.830Z,22.90
2018-03-17T11:29:49.813Z,21.30
2018-03-17T11:30:49.795Z,20.60
2018-03-17T11:31:49.786Z,24.90
2018-03-17T11:32:49.777Z,21.80
2018-03-17T11:33:49.813Z,19.90
2018-03-17T11:34:49.747Z,21.00
2018-03-17T11:35:49.738Z,21.70
2018-03-17T11:36:49.729Z,22.20
2018-03-17T11:37:49.705Z,20.50
2018-03-17T11:38:49.692Z,23.20
2018-03-17T11:39:49.684Z,20.90
2018-03-17T11:40:49.671Z,22.40
2018-03-17T11:41:49.654Z,19.60
2018-03-17T11:42:49.641Z,20.10
2018-03-17T11:43:49.638Z,19.50
2018-03-17T11:44:49.618Z,21.60
2018-03-17T11:45:49.610Z,21.60
2018-03-17T11:46:49.586Z,20.60
2018-03-17T11:47:49.575Z,21.40
2018-03-17T11:48:49.561Z,19.90
2018-03-17T11:49:49.549Z,17.00
2018-03-17T11:50:49.539Z,20.20
2018-03-17T11:51:49.524Z,20.90
2018-03-17T11:52:49.517Z,19.30
2018-03-17T11:53:49.501Z,19.20
2018-03-17T11:54:49.488Z,19.90
2018-03-17T11:55:49.473Z,21.80
2018-03-17T11:56:49.460Z,21.20
2018-03-17T11:57:49.449Z,21.00
2018-03-17T11:58:49.433Z,19.20
2018-03-17T11:59:49.417Z,22.30
2018-03-17T12:00:49.403Z,21.60
2018-03-17T12:01:49.393Z,20.40
2018-03-17T12:02:49.430Z,19.00
2018-03-17T12:03:49.364Z,20.40
2018-03-17T12:04:49.354Z,19.10
2018-03-17T12:05:49.337Z,21.00
2018-03-17T12:06:49.322Z,19.00
2018-03-17T12:07:49.316Z,20.90
2018-03-17T12:08:49.297Z,18.60
2018-03-17T12:09:49.284Z,20.60
2018-03-17T12:10:49.275Z,18.90
2018-03-17T12:11:49.256Z,20.60
2018-03-17T12:12:49.254Z,19.90
2018-03-17T12:13:49.236Z,17.90
2018-03-17T12:14:49.218Z,17.40
2018-03-17T12:15:49.202Z,19.60
2018-03-17T12:16:49.189Z,18.50
2018-03-17T12:17:49.186Z,20.50
2018-03-17T12:18:49.168Z,22.50
2018-03-17T12:19:49.151Z,20.60
2018-03-17T12:20:49.137Z,19.20
2018-03-17T12:21:49.123Z,20.60
2018-03-17T12:22:49.113Z,19.00
2018-03-17T12:23:49.098Z,19.50
2018-03-17T12:24:49.091Z,21.00
2018-03-17T12:25:49.079Z,21.40
2018-03-17T12:26:49.061Z,21.20
2018-03-17T12:27:49.050Z,21.10
2018-03-17T12:28:49.039Z,19.40
2018-03-17T12:29:49.015Z,21.50
2018-03-17T12:30:49.002Z,21.00
2018-03-17T12:31:48.989Z,22.20
2018-03-17T12:32:48.984Z,21.00
2018-03-17T12:33:48.963Z,21.50
2018-03-17T12:34:48.949Z,17.70
2018-03-17T12:35:48.934Z,21.80
2018-03-17T12:36:48.921Z,22.00
2018-03-17T12:37:48.907Z,25.60
2018-03-17T12:38:48.905Z,22.60
2018-03-17T12:39:48.887Z,24.30
2018-03-17T12:40:48.869Z,21.70
2018-03-17T12:41:48.857Z,21.60
2018-03-17T12:42:48.843Z,21.70
2018-03-17T12:43:48.827Z,21.60
2018-03-17T12:44:48.821Z,19.60
2018-03-17T12:45:48.802Z,21.20
2018-03-17T12:46:48.794Z,21.80
2018-03-17T12:47:48.775Z,21.60
2018-03-17T12:48:48.773Z,20.90
2018-03-17T12:49:48.751Z,21.10
2018-03-17T12:50:48.735Z,21.30
2018-03-17T12:51:48.720Z,23.80
2018-03-17T12:52:48.707Z,21.60
2018-03-17T12:53:48.694Z,23.10
2018-03-17T12:54:48.683Z,22.80
2018-03-17T12:55:48.674Z,22.70
2018-03-17T12:56:48.653Z,21.30
2018-03-17T12:57:48.640Z,21.70
2018-03-17T12:58:48.625Z,23.50
2018-03-17T12:59:48.612Z,23.90
2018-03-17T13:00:48.605Z,21.60
2018-03-17T13:01:48.590Z,21.00
2018-03-17T13:02:48.572Z,19.30
2018-03-17T13:03:48.596Z,24.20
2018-03-17T13:04:48.546Z,21.80
2018-03-17T13:05:48.532Z,24.60
2018-03-17T13:06:48.519Z,22.00
2018-03-17T13:07:48.506Z,21.50
2018-03-17T13:08:48.494Z,21.70
2018-03-17T13:09:48.478Z,23.80